Thursday, April 26, 2018, 5:45 AM EDT
Back to Local

KMMK, Meriden Markham Municipal Airport

Location: Meriden, CT, United States Lat: 41.517
Local Time: 5:45 AM EDT ( 9:45 GMT) Lon: -72.833
Time Zone: US/Eastern Elev: 101 ft

Show me the last for .
Show Decoded

2018-04-26 05:34 METAR KMMK 260934Z AUTO 17005KT 1 1/2SM BR BKN003 OVC007 12/12 A2958 RMK AO2
                 T01170117 =
2018-04-26 05:09 METAR KMMK 260909Z AUTO 18004KT 3/4SM BR VV003 12/12 A2958 RMK AO2 T01170117 =
2018-04-26 05:02 METAR KMMK 260902Z AUTO 18003KT 1SM BR VV004 12/12 A2958 RMK AO2 T01170117 =
2018-04-26 04:53 METAR KMMK 260853Z AUTO 19004KT 3/4SM BR VV003 12/12 A2958 RMK AO2 SLP014
                 T01170117 55011 =
2018-04-26 03:53 METAR KMMK 260753Z AUTO 00000KT 1/2SM FG VV003 12/12 A2957 RMK AO2 SLP012
                 T01170117 =
2018-04-26 02:53 METAR KMMK 260653Z AUTO 00000KT 1/2SM FG VV002 12/12 A2958 RMK AO2 SLP016
                 T01170117 =
2018-04-26 01:53 METAR KMMK 260553Z AUTO 17006KT 1/2SM FG VV002 12/12 A2961 RMK AO2 SLP025 60055
                 T01170117 10133 20117 56016 =
2018-04-26 01:31 METAR KMMK 260531Z AUTO 17004KT 1/2SM FG VV002 12/12 A2961 RMK AO2 T01220122 =
2018-04-26 01:20 METAR KMMK 260520Z AUTO 18006KT 1 1/2SM BR OVC002 12/12 A2961 RMK AO2 T01220122
                 =
2018-04-26 00:53 METAR KMMK 260453Z AUTO 17005KT 10SM OVC003 13/12 A2962 RMK AO2 RAE19 SLP029
                 P0001 T01280122 401390106 =
2018-04-26 00:23 METAR KMMK 260423Z AUTO 18008KT 10SM OVC004 13/12 A2963 RMK AO2 RAE19 P0001
                 T01280122 =
2018-04-26 00:08 METAR KMMK 260408Z AUTO 17006KT 10SM -RA BKN006 OVC018 13/13 A2964 RMK AO2 P0001
                 T01280128 =
2018-04-25 23:53 METAR KMMK 260353Z AUTO 16003KT 2SM +RA BR BKN006 OVC014 13/13 A2964 RMK AO2
                 SLP036 P0014 T01330128 =
2018-04-25 23:09 METAR KMMK 260309Z AUTO 19003KT 4SM -RA BR OVC006 13/13 A2966 RMK AO2 CIG
                 003V008 P0001 T01330133 =
2018-04-25 23:01 METAR KMMK 260301Z AUTO 17003KT 2SM -RA BR OVC006 13/13 A2966 RMK AO2 P0001
                 T01330133 =
2018-04-25 22:53 METAR KMMK 260253Z AUTO 00000KT 1SM -RA BR OVC007 13/13 A2965 RMK AO2 RAE31B50
                 SLP041 P0023 60040 T01280128 58015 =
2018-04-25 22:37 METAR KMMK 260237Z AUTO 00000KT 4SM BR OVC006 13/13 A2966 RMK AO2 RAE31 P0023
                 T01330133 =
2018-04-25 22:25 METAR KMMK 260225Z AUTO 00000KT 3SM -RA BR OVC009 13/13 A2966 RMK AO2 LTG DSNT S
                 P0023 T01330133 =
2018-04-25 22:07 METAR KMMK 260207Z AUTO 00000KT 1 1/2SM +RA BR SCT005 OVC009 13/13 A2967 RMK AO2
                 P0015 T01330133 =
2018-04-25 21:53 METAR KMMK 260153Z AUTO 00000KT 1 1/2SM +RA BR OVC005 13/13 A2968 RMK AO2
                 RAE08B51 SLP049 P0008 T01330133 =
2018-04-25 21:35 METAR KMMK 260135Z AUTO 00000KT 4SM BR OVC005 13/13 A2968 RMK AO2 RAE08 P0000
                 T01330133 =
2018-04-25 20:53 METAR KMMK 260053Z AUTO 00000KT 3SM -RA BR OVC004 13/13 A2970 RMK AO2 RAB14
                 SLP056 P0009 T01330128 =
2018-04-25 20:40 METAR KMMK 260040Z AUTO 00000KT 4SM -RA BR OVC004 13/13 A2970 RMK AO2 RAB14
                 P0009 T01330128 =
2018-04-25 20:25 METAR KMMK 260025Z AUTO 00000KT 2 1/2SM +RA BR OVC004 13/13 A2970 RMK AO2 LTG
                 DSNT E RAB14 P0005 T01330128 =
2018-04-25 19:53 METAR KMMK 252353Z AUTO 00000KT 4SM BR OVC004 13/13 A2970 RMK AO2 RAB10E47
                 SLP056 P0005 60014 T01330133 10139 20133 56006 =
2018-04-25 19:23 METAR KMMK 252323Z AUTO 00000KT 3SM -RA BR OVC005 13/13 A2970 RMK AO2 RAB10
                 P0004 T01330128 =
2018-04-25 19:11 METAR KMMK 252311Z AUTO 00000KT 1 1/4SM -RA BR OVC005 13/13 A2970 RMK AO2 LTG
                 DSNT SE RAB10 P0002 T01330128 =
2018-04-25 18:53 METAR KMMK 252253Z AUTO 11003KT 2SM BR OVC005 13/13 A2970 RMK AO2 RAE06B40E49
                 SLP058 P0000 T01330128 =
2018-04-25 18:40 METAR KMMK 252240Z AUTO 00000KT 1 3/4SM -RA BR OVC005 13/13 A2970 RMK AO2
                 RAE06B40 CIG 003V008 P0000 T01330133 =
2018-04-25 18:27 METAR KMMK 252227Z AUTO 00000KT 3SM BR OVC006 13/13 A2971 RMK AO2 RAE06 CIG
                 003V009 P0000 T01330128 =
2018-04-25 18:09 METAR KMMK 252209Z AUTO 00000KT 3SM BR OVC004 13/13 A2971 RMK AO2 RAE06 CIG
                 003V008 P0000 T01330133 =
2018-04-25 17:53 METAR KMMK 252153Z AUTO 00000KT 2SM -RA BR OVC006 13/13 A2972 RMK AO2
                 RAB33E47B49 SLP063 P0001 T01330133 =
2018-04-25 17:48 METAR KMMK 252148Z AUTO 00000KT 2 1/2SM BR OVC006 13/13 A2972 RMK AO2 RAB33E47
                 P0000 =
2018-04-25 17:39 METAR KMMK 252139Z AUTO 13004KT 1 3/4SM -RA BR OVC006 13/13 A2972 RMK AO2 RAB33
                 P0000 T01330128 =
2018-04-25 17:31 METAR KMMK 252131Z AUTO 12004KT 4SM BR OVC006 13/13 A2972 RMK AO2 T01330128 =
2018-04-25 16:53 METAR KMMK 252053Z AUTO 14006KT 8SM OVC008 13/13 A2974 RMK AO2 SLP069 60008
                 T01330128 56031 =
2018-04-25 16:43 METAR KMMK 252043Z AUTO 13006KT 10SM OVC009 14/13 A2974 RMK AO2 T01390128 =
2018-04-25 15:53 METAR KMMK 251953Z AUTO 16007KT 5SM BR OVC010 14/13 A2976 RMK AO2 RAE44 SLP077
                 P0002 T01390128 =
2018-04-25 14:53 METAR KMMK 251853Z AUTO VRB03KT 3SM -RA BR OVC008 13/12 A2979 RMK AO2 SLP087
                 P0006 T01330122 =
2018-04-25 14:38 METAR KMMK 251838Z AUTO 13003KT 4SM -RA BR OVC010 13/13 A2980 RMK AO2 CIG
                 007V014 P0005 T01330128 =
2018-04-25 14:08 METAR KMMK 251808Z AUTO VRB04KT 2 1/2SM -RA BR OVC010 13/12 A2982 RMK AO2 CIG
                 008V014 P0003 T01330122 =
2018-04-25 13:53 METAR KMMK 251753Z AUTO VRB04KT 5SM -RA BR OVC010 14/13 A2983 RMK AO2 SLP100
                 P0011 60025 T01390128 10139 20111 58026 =
2018-04-25 13:30 METAR KMMK 251730Z AUTO VRB06KT 3SM RA BR OVC010 13/12 A2984 RMK AO2 CIG 007V015
                 P0009 T01330122 =
2018-04-25 13:20 METAR KMMK 251720Z AUTO 13006KT 2SM RA BR OVC010 13/12 A2984 RMK AO2 CIG 007V015
                 P0006 T01330122 =
2018-04-25 12:53 METAR KMMK 251653Z AUTO 13009KT 6SM -RA BR OVC010 14/12 A2986 RMK AO2 CIG
                 008V013 SLP110 P0001 T01390122 =
2018-04-25 12:01 METAR KMMK 251601Z AUTO 13006KT 5SM -RA BR BKN010 OVC014 13/12 A2990 RMK AO2
                 P0000 T01330122 =
2018-04-25 11:53 METAR KMMK 251553Z AUTO 12005KT 2 1/2SM -RA BR OVC010 13/12 A2990 RMK AO2 SLP124
                 P0006 T01330122 =
2018-04-25 11:48 METAR KMMK 251548Z AUTO 12008KT 2 1/2SM -RA BR OVC010 13/12 A2990 RMK AO2 P0006
                 =
2018-04-25 11:11 METAR KMMK 251511Z AUTO VRB04KT 3SM -RA BR OVC010 13/12 A2993 RMK AO2 CIG
                 006V013 P0002 T01280122 =
2018-04-25 10:53 METAR KMMK 251453Z AUTO 10007KT 2 1/2SM -RA BR OVC008 13/12 A2994 RMK AO2 RAB13
                 CIG 006V013 SLP138 P0002 60007 T01280117 56019 =
2018-04-25 10:35 METAR KMMK 251435Z AUTO 00000KT 4SM -RA BR BKN007 OVC011 12/11 A2995 RMK AO2
                 RAB13 CIG 006V009 P0001 T01220111 =
2018-04-25 10:28 METAR KMMK 251428Z AUTO VRB06KT 2 1/2SM -RA BR OVC007 12/11 A2995 RMK AO2 RAB13
                 P0001 T01220111 =
2018-04-25 10:01 METAR KMMK 251401Z AUTO 13005KT 9SM OVC007 12/11 A2996 RMK AO2 T01220111 =
2018-04-25 09:53 METAR KMMK 251353Z AUTO 12005KT 7SM OVC006 12/12 A2996 RMK AO2 RAE03B20E40
                 SLP146 P0000 T01220117 =
2018-04-25 09:51 METAR KMMK 251351Z AUTO 13004KT 7SM OVC006 12/12 A2996 RMK AO2 RAE03B20E40 P0000
                 =
2018-04-25 08:58 METAR KMMK 251258Z AUTO VRB03KT 5SM -RA BR OVC008 12/11 A2999 RMK AO2 CIG
                 005V011 P0000 T01170111 =
2018-04-25 08:50 METAR KMMK 251250Z AUTO 06003KT 2 1/2SM -RA BR OVC008 11/11 A3000 RMK AO2 CIG
                 005V011 SLP157 P0005 T01110106 =
2018-04-25 08:49 METAR KMMK 251249Z AUTO 06003KT 2 1/2SM -RA BR OVC008 11/11 A3000 RMK AO2 CIG
                 005V011 P0005 =
2018-04-25 08:42 METAR KMMK 251242Z AUTO 06003KT 1 3/4SM -RA BR OVC006 11/11 A3000 RMK AO2 CIG
                 005V009 P0004 T01110106 =
2018-04-25 08:16 METAR KMMK 251216Z AUTO 00000KT 1 1/4SM -RA BR OVC007 11/11 A3001 RMK AO2 CIG
                 005V009 P0001 T01110106 =
2018-04-25 08:01 METAR KMMK 251201Z AUTO 01003KT 2 1/2SM -RA BR OVC007 11/11 A3002 RMK AO2 P0000
                 T01110106 =
2018-04-25 07:53 METAR KMMK 251153Z AUTO 00000KT 1 3/4SM -RA BR OVC007 11/11 A3002 RMK AO2 RAB01
                 SLP165 P0002 60007 70007 T01110106 10117 20106 56019 =
2018-04-25 07:28 METAR KMMK 251128Z AUTO 05004KT 2SM -RA BR OVC008 11/10 A3003 RMK AO2 RAB01
                 P0001 T01110100 =
2018-04-25 06:53 METAR KMMK 251053Z AUTO 01003KT 10SM OVC008 11/10 A3004 RMK AO2 RAE07B29E49
                 SLP172 P0000 T01060100 =
2018-04-25 06:11 METAR KMMK 251011Z AUTO 05004KT 10SM OVC009 11/09 A3005 RMK AO2 RAE07 P0000
                 T01060094 =
2018-04-25 05:53 METAR KMMK 250953Z AUTO 03003KT 10SM -RA OVC010 11/09 A3005 RMK AO2 SLP175 P0003
                 T01060094 =

Support USWX by starting your Amazon purchase here.